CheckWX is a tool to help pilots better visualize weather data.  It is not intended as a substitute for an official pre-flight weather briefing.

10:03:58 UTC

ENSH METAR
Svolvær Helle Airport
Svolvær, Norway
Current

14 mins ago

ENSH 200950Z 36009KT 9999 FEW035 M03/M09 Q1011 RMK WIND 150FT 35011KT
Observed
Feb-20 @ 09:50 UTC
Wind
  • 360° at 9 KTS
Visibility
10,000+ meters
Flight Rules
VFR
Cloud Levels
  • Few at 3,500' AGL
Temperature
-3°C / 27°F
Dewpoint
-9°C / 16°F
Humidity
64%
Altimeter
29.85" Hg
Pressure
1010.92 hPa
Previous

44 mins ago

ENSH 200920Z 35010KT 9999 SCT035 M04/M09 Q1011 RMK WIND 150FT 34011KT
Observed
Feb-20 @ 09:20 UTC
Wind
  • 350° at 10 KTS
Visibility
10,000+ meters
Flight Rules
VFR
Cloud Levels
  • Scattered at 3,500' AGL
Temperature
-4°C / 25°F
Dewpoint
-9°C / 16°F
Humidity
69%
Altimeter
29.85" Hg
Pressure
1010.92 hPa
Previous

1 hour ago

ENSH 200850Z 01007KT 9999 FEW035 M04/M09 Q1010 RMK WIND 150FT 35008KT
Observed
Feb-20 @ 08:50 UTC
Wind
  • 010° at 7 KTS
Visibility
10,000+ meters
Flight Rules
VFR
Cloud Levels
  • Few at 3,500' AGL
Temperature
-4°C / 25°F
Dewpoint
-9°C / 16°F
Humidity
69%
Altimeter
29.82" Hg
Pressure
1009.92 hPa